createdAt,value
2023-04-27T00:00:53.324Z,68.86
2023-04-27T00:01:56.326Z,69.30
2023-04-27T00:02:59.524Z,69.13
2023-04-27T00:04:04.720Z,68.92
2023-04-27T00:05:08.473Z,68.56
2023-04-27T00:06:11.635Z,68.70
2023-04-27T00:07:14.389Z,69.35
2023-04-27T00:08:17.947Z,69.79
2023-04-27T00:09:20.824Z,69.86
2023-04-27T00:10:23.775Z,69.46
2023-04-27T00:11:26.599Z,69.18
2023-04-27T00:12:29.616Z,68.92
2023-04-27T00:13:32.422Z,69.01
2023-04-27T00:14:35.258Z,68.41
2023-04-27T00:15:38.036Z,68.16
2023-04-27T00:16:40.848Z,68.06
2023-04-27T00:17:43.841Z,68.18
2023-04-27T00:18:47.041Z,68.07
2023-04-27T00:19:49.928Z,67.80
2023-04-27T00:20:53.128Z,67.78
2023-04-27T00:21:58.073Z,67.73
2023-04-27T00:23:00.899Z,67.95
2023-04-27T00:24:03.834Z,68.30
2023-04-27T00:25:06.832Z,68.06
2023-04-27T00:26:09.546Z,68.01
2023-04-27T00:27:13.747Z,67.90
2023-04-27T00:28:16.906Z,67.83
2023-04-27T00:29:19.684Z,67.66
2023-04-27T00:30:22.871Z,67.52
2023-04-27T00:31:25.716Z,66.85
2023-04-27T00:32:28.768Z,66.05
2023-04-27T00:33:31.489Z,66.50
2023-04-27T00:34:34.323Z,66.07
2023-04-27T00:35:37.012Z,66.20
2023-04-27T00:36:39.789Z,64.97
2023-04-27T00:37:42.768Z,64.52
2023-04-27T00:38:45.914Z,64.01
2023-04-27T00:39:48.633Z,63.94
2023-04-27T00:40:51.545Z,63.70
2023-04-27T00:41:54.367Z,63.11
2023-04-27T00:42:57.152Z,62.47
2023-04-27T00:43:59.967Z,61.57
2023-04-27T00:45:03.591Z,61.49
2023-04-27T00:46:06.442Z,62.39
2023-04-27T00:47:11.259Z,62.74
2023-04-27T00:48:14.142Z,62.81
2023-04-27T00:49:17.115Z,62.38
2023-04-27T00:50:33.315Z,61.61
2023-04-27T00:51:36.820Z,62.01
2023-04-27T00:52:40.129Z,61.68
2023-04-27T00:53:43.716Z,62.30
2023-04-27T00:54:50.925Z,63.25
2023-04-27T00:55:53.658Z,63.48
2023-04-27T00:56:56.386Z,62.50
2023-04-27T00:57:59.180Z,62.67
2023-04-27T00:59:01.904Z,62.84
2023-04-27T01:00:07.336Z,61.87
2023-04-27T01:01:11.154Z,62.45
2023-04-27T01:02:14.509Z,62.30
2023-04-27T01:03:18.232Z,60.84
2023-04-27T01:04:21.812Z,60.18
2023-04-27T01:05:26.598Z,59.57
2023-04-27T01:06:29.949Z,59.28
2023-04-27T01:07:32.764Z,59.65
2023-04-27T01:08:35.938Z,58.39
2023-04-27T01:09:38.650Z,58.35
2023-04-27T01:10:42.356Z,58.34
2023-04-27T01:11:48.994Z,58.25
2023-04-27T01:12:52.016Z,58.00
2023-04-27T01:13:55.698Z,58.29
2023-04-27T01:14:58.595Z,58.69
2023-04-27T01:16:01.408Z,59.39
2023-04-27T01:17:04.209Z,60.19
2023-04-27T01:18:07.489Z,59.14
2023-04-27T01:19:10.411Z,59.24
2023-04-27T01:20:13.375Z,59.40
2023-04-27T01:21:16.883Z,59.58
2023-04-27T01:22:19.614Z,59.55
2023-04-27T01:23:22.713Z,59.07
2023-04-27T01:24:25.627Z,58.39
2023-04-27T01:25:28.278Z,58.20
2023-04-27T01:26:31.071Z,58.68
2023-04-27T01:27:34.336Z,58.42
2023-04-27T01:28:37.422Z,58.25
2023-04-27T01:29:40.534Z,58.91
2023-04-27T01:30:43.658Z,58.63
2023-04-27T01:31:46.786Z,58.63
2023-04-27T01:32:50.356Z,58.80
2023-04-27T01:33:53.177Z,57.88
2023-04-27T01:34:56.095Z,57.88
2023-04-27T01:35:58.754Z,57.95
2023-04-27T01:37:01.700Z,57.93
2023-04-27T01:38:04.610Z,58.10
2023-04-27T01:39:09.631Z,57.52
2023-04-27T01:40:13.245Z,57.70
2023-04-27T01:41:16.090Z,57.85
2023-04-27T01:42:18.818Z,57.91
2023-04-27T01:43:21.776Z,57.21
2023-04-27T01:44:24.985Z,57.55
2023-04-27T01:45:27.746Z,58.14
2023-04-27T01:46:30.688Z,58.82
2023-04-27T01:47:33.652Z,59.67
2023-04-27T01:48:36.745Z,59.89
2023-04-27T01:49:39.417Z,60.51
2023-04-27T01:50:42.260Z,60.25
2023-04-27T01:51:45.260Z,60.38
2023-04-27T01:52:48.053Z,60.78
2023-04-27T01:53:50.790Z,61.04
2023-04-27T01:54:53.855Z,61.76
2023-04-27T01:55:57.137Z,61.91
2023-04-27T01:57:00.122Z,62.81
2023-04-27T01:58:03.070Z,62.29
2023-04-27T01:59:05.971Z,61.61
2023-04-27T02:00:09.508Z,61.36
2023-04-27T02:01:12.458Z,61.34
2023-04-27T02:02:15.346Z,62.07
2023-04-27T02:03:18.539Z,62.05
2023-04-27T02:04:21.533Z,61.33
2023-04-27T02:05:24.681Z,61.68
2023-04-27T02:06:27.973Z,62.41
2023-04-27T02:07:30.881Z,62.04
2023-04-27T02:08:35.074Z,61.87
2023-04-27T02:09:38.246Z,61.44
2023-04-27T02:10:41.278Z,61.60
2023-04-27T02:11:44.203Z,62.26
2023-04-27T02:12:47.011Z,62.95
2023-04-27T02:13:49.752Z,62.36
2023-04-27T02:14:52.507Z,62.06
2023-04-27T02:15:56.537Z,62.67
2023-04-27T02:16:59.539Z,62.44
2023-04-27T02:18:04.079Z,62.43
2023-04-27T02:19:07.213Z,62.82
2023-04-27T02:20:11.198Z,62.93
2023-04-27T02:21:14.108Z,62.35
2023-04-27T02:22:17.591Z,62.89
2023-04-27T02:23:20.262Z,64.44
2023-04-27T02:24:22.959Z,64.12
2023-04-27T02:25:26.130Z,62.27
2023-04-27T02:26:32.566Z,62.23
2023-04-27T02:27:41.066Z,63.02
2023-04-27T02:28:44.328Z,63.05
2023-04-27T02:29:47.594Z,62.55
2023-04-27T02:30:51.031Z,62.53
2023-04-27T02:31:53.960Z,62.85
2023-04-27T02:33:01.816Z,63.01
2023-04-27T02:34:04.471Z,63.21
2023-04-27T02:35:08.192Z,64.11
2023-04-27T02:36:10.955Z,64.43
2023-04-27T02:37:13.671Z,64.71
2023-04-27T02:38:16.468Z,65.36
2023-04-27T02:39:19.207Z,65.97
2023-04-27T02:40:22.312Z,65.80
2023-04-27T02:41:28.142Z,65.54
2023-04-27T02:42:31.069Z,65.27
2023-04-27T02:43:33.800Z,65.42
2023-04-27T02:44:36.623Z,65.36
2023-04-27T02:45:39.534Z,65.47
2023-04-27T02:46:42.387Z,66.00
2023-04-27T02:47:45.867Z,66.35
2023-04-27T02:48:48.974Z,66.53
2023-04-27T02:49:53.142Z,66.61
2023-04-27T02:50:57.042Z,66.62
2023-04-27T02:51:59.937Z,67.09
2023-04-27T02:53:03.009Z,67.12
2023-04-27T02:54:05.731Z,67.29
2023-04-27T02:55:08.947Z,68.64
2023-04-27T02:56:11.654Z,69.15
2023-04-27T02:57:14.527Z,68.85
2023-04-27T02:58:17.499Z,69.03
2023-04-27T02:59:20.408Z,68.99
2023-04-27T03:00:23.332Z,69.45
2023-04-27T03:01:26.242Z,70.12
2023-04-27T03:02:29.242Z,70.42
2023-04-27T03:03:32.318Z,70.40
2023-04-27T03:04:36.829Z,70.64
2023-04-27T03:05:39.664Z,70.72
2023-04-27T03:06:51.683Z,71.15
2023-04-27T03:07:54.392Z,71.24
2023-04-27T03:08:57.015Z,71.60
2023-04-27T03:09:59.788Z,71.97
2023-04-27T03:11:02.739Z,72.78
2023-04-27T03:12:05.834Z,73.36
2023-04-27T03:13:08.558Z,72.99
2023-04-27T03:14:12.930Z,72.92
2023-04-27T03:15:16.065Z,72.81
2023-04-27T03:16:18.886Z,72.81
2023-04-27T03:17:21.712Z,72.89
2023-04-27T03:18:24.552Z,73.28
2023-04-27T03:19:27.250Z,73.55
2023-04-27T03:20:30.052Z,74.21
2023-04-27T03:21:32.931Z,74.97
2023-04-27T03:22:38.892Z,75.22
2023-04-27T03:23:41.621Z,75.19
2023-04-27T03:24:44.460Z,75.47
2023-04-27T03:25:49.025Z,75.66
2023-04-27T03:26:52.724Z,75.84
2023-04-27T03:27:55.476Z,75.47
2023-04-27T03:28:58.253Z,75.44
2023-04-27T03:30:00.980Z,75.20
2023-04-27T03:31:12.785Z,75.42
2023-04-27T03:32:15.771Z,75.86
2023-04-27T03:33:18.886Z,75.75
2023-04-27T03:34:21.922Z,75.90
2023-04-27T03:35:24.697Z,76.25
2023-04-27T03:36:27.465Z,75.84
2023-04-27T03:37:30.411Z,75.53
2023-04-27T03:38:33.888Z,75.43
2023-04-27T03:39:36.639Z,75.84
2023-04-27T03:40:39.783Z,76.04
2023-04-27T03:41:42.721Z,76.32
2023-04-27T03:42:45.751Z,76.31
2023-04-27T03:43:49.284Z,76.38
2023-04-27T03:44:52.042Z,76.16
2023-04-27T03:45:54.912Z,75.92
2023-04-27T03:46:57.751Z,76.14
2023-04-27T03:48:00.473Z,76.21
2023-04-27T03:49:03.528Z,76.38
2023-04-27T03:50:07.023Z,76.51
2023-04-27T03:51:10.028Z,76.11
2023-04-27T03:52:14.601Z,76.38
2023-04-27T03:53:17.420Z,76.91
2023-04-27T03:54:20.102Z,77.21
2023-04-27T03:55:22.772Z,77.32
2023-04-27T03:56:25.588Z,77.09
2023-04-27T03:57:28.384Z,76.88
2023-04-27T03:58:31.135Z,76.98
2023-04-27T03:59:33.762Z,76.86
2023-04-27T04:00:37.849Z,76.72
2023-04-27T04:01:41.496Z,76.33
2023-04-27T04:02:45.162Z,76.63
2023-04-27T04:03:48.511Z,76.79
2023-04-27T04:04:51.579Z,76.68
2023-04-27T04:05:54.415Z,76.76
2023-04-27T04:06:57.171Z,76.78
2023-04-27T04:08:00.420Z,77.10
2023-04-27T04:09:03.901Z,77.35
2023-04-27T04:10:08.067Z,77.58
2023-04-27T04:11:10.912Z,77.36
2023-04-27T04:12:13.906Z,77.03
2023-04-27T04:13:17.051Z,77.06
2023-04-27T04:14:19.803Z,76.90
2023-04-27T04:15:22.614Z,77.23
2023-04-27T04:16:25.369Z,77.42
2023-04-27T04:17:28.411Z,77.42
2023-04-27T04:18:31.234Z,77.88
2023-04-27T04:19:34.348Z,78.12
2023-04-27T04:20:37.057Z,78.02
2023-04-27T04:21:39.757Z,77.87
2023-04-27T04:22:43.484Z,77.59
2023-04-27T04:23:46.236Z,77.91
2023-04-27T04:24:48.857Z,77.99
2023-04-27T04:25:51.909Z,77.80
2023-04-27T04:26:54.756Z,77.87
2023-04-27T04:27:58.125Z,77.60
2023-04-27T04:29:01.332Z,77.46
2023-04-27T04:30:06.550Z,77.18
2023-04-27T04:31:09.999Z,76.91
2023-04-27T04:32:17.869Z,77.02
2023-04-27T04:33:20.653Z,76.87
2023-04-27T04:34:23.549Z,76.97
2023-04-27T04:35:26.358Z,77.35
2023-04-27T04:36:29.181Z,77.48
2023-04-27T04:37:34.492Z,77.32
2023-04-27T04:38:38.202Z,77.37
2023-04-27T04:39:41.085Z,77.17
2023-04-27T04:40:45.850Z,77.10
2023-04-27T04:41:49.971Z,77.37
2023-04-27T04:42:53.119Z,77.42
2023-04-27T04:43:55.837Z,77.35
2023-04-27T04:44:58.984Z,77.37
2023-04-27T04:46:01.775Z,76.91
2023-04-27T04:47:05.337Z,76.82
2023-04-27T04:48:08.864Z,76.86
2023-04-27T04:49:12.319Z,76.81
2023-04-27T04:50:15.681Z,76.32
2023-04-27T04:51:18.350Z,76.02
2023-04-27T04:52:21.434Z,75.43
2023-04-27T04:53:24.165Z,75.45
2023-04-27T04:54:26.753Z,75.67
2023-04-27T04:55:29.524Z,75.78
2023-04-27T04:56:32.298Z,75.45
2023-04-27T04:57:35.011Z,75.40
2023-04-27T04:58:37.940Z,74.51
2023-04-27T04:59:41.385Z,73.40
2023-04-27T05:00:44.052Z,72.35
2023-04-27T05:01:46.955Z,69.26
2023-04-27T05:02:50.306Z,68.38
2023-04-27T05:03:53.447Z,66.75
2023-04-27T05:04:58.069Z,64.29
2023-04-27T05:06:00.987Z,62.86
2023-04-27T05:07:04.946Z,63.78
2023-04-27T05:08:07.750Z,63.48
2023-04-27T05:09:10.417Z,63.77
2023-04-27T05:10:13.210Z,63.73
2023-04-27T05:11:15.971Z,62.47
2023-04-27T05:12:19.293Z,62.14
2023-04-27T05:13:22.153Z,61.09
2023-04-27T05:14:24.782Z,59.54
2023-04-27T05:15:27.448Z,59.53
2023-04-27T05:16:31.199Z,57.77
2023-04-27T05:17:34.065Z,58.82
2023-04-27T05:18:36.968Z,57.51
2023-04-27T05:19:39.784Z,57.29
2023-04-27T05:20:42.589Z,57.92
2023-04-27T05:21:45.696Z,57.05
2023-04-27T05:22:48.437Z,56.03
2023-04-27T05:23:51.115Z,56.61
2023-04-27T05:24:53.879Z,56.90
2023-04-27T05:25:56.734Z,56.93
2023-04-27T05:27:00.796Z,56.51
2023-04-27T05:28:05.322Z,55.73
2023-04-27T05:29:08.206Z,54.68
2023-04-27T05:30:11.656Z,53.95
2023-04-27T05:31:15.218Z,54.24
2023-04-27T05:32:18.092Z,52.79
2023-04-27T05:33:21.111Z,51.55
2023-04-27T05:34:23.835Z,52.08
2023-04-27T05:35:26.532Z,52.67
2023-04-27T05:36:29.384Z,52.58
2023-04-27T05:37:32.049Z,51.82
2023-04-27T05:38:36.285Z,52.36
2023-04-27T05:39:39.382Z,51.49
2023-04-27T05:40:42.276Z,51.11
2023-04-27T05:41:45.060Z,51.04
2023-04-27T05:42:48.628Z,49.06
2023-04-27T05:43:51.636Z,48.87
2023-04-27T05:44:54.372Z,49.27
2023-04-27T05:46:05.908Z,48.59
2023-04-27T05:47:08.700Z,48.79
2023-04-27T05:48:12.200Z,49.22
2023-04-27T05:49:15.496Z,49.16
2023-04-27T05:50:18.360Z,49.07
2023-04-27T05:51:21.188Z,49.74
2023-04-27T05:52:29.732Z,50.25
2023-04-27T05:53:34.805Z,50.53
2023-04-27T05:54:37.359Z,49.06
2023-04-27T05:55:40.286Z,48.75
2023-04-27T05:56:42.937Z,48.52
2023-04-27T05:57:47.666Z,48.29
2023-04-27T05:58:52.612Z,48.38
2023-04-27T05:59:55.848Z,48.90
2023-04-27T06:00:59.102Z,48.13
2023-04-27T06:02:02.012Z,48.23
2023-04-27T06:03:05.082Z,48.73
2023-04-27T06:04:08.387Z,48.17
2023-04-27T06:05:11.472Z,47.18
2023-04-27T06:06:14.289Z,47.73
2023-04-27T06:07:17.249Z,48.21
2023-04-27T06:08:19.990Z,48.70
2023-04-27T06:09:22.706Z,46.45
2023-04-27T06:10:25.516Z,46.42
2023-04-27T06:11:28.818Z,47.13
2023-04-27T06:12:31.961Z,47.77
2023-04-27T06:13:34.806Z,45.91
2023-04-27T06:14:38.304Z,46.33
2023-04-27T06:15:41.243Z,47.76
2023-04-27T06:16:44.132Z,46.65
2023-04-27T06:17:47.025Z,44.96
2023-04-27T06:18:51.313Z,45.10
2023-04-27T06:19:53.973Z,45.16
2023-04-27T06:21:02.021Z,43.77
2023-04-27T06:22:05.276Z,43.70
2023-04-27T06:23:07.979Z,43.91
2023-04-27T06:24:10.668Z,44.17
2023-04-27T06:25:13.442Z,44.79
2023-04-27T06:26:16.227Z,45.58
2023-04-27T06:27:18.922Z,46.56
2023-04-27T06:28:21.774Z,43.51
2023-04-27T06:29:24.815Z,44.01
2023-04-27T06:30:28.089Z,44.47
2023-04-27T06:31:31.683Z,44.27
2023-04-27T06:32:34.638Z,43.58
2023-04-27T06:33:37.399Z,43.93
2023-04-27T06:34:40.015Z,44.20
2023-04-27T06:35:44.579Z,44.13
2023-04-27T06:36:48.793Z,44.37
2023-04-27T06:37:51.666Z,43.21
2023-04-27T06:38:58.252Z,41.99
2023-04-27T06:40:00.928Z,41.81
2023-04-27T06:41:03.727Z,41.43
2023-04-27T06:42:06.638Z,40.39
2023-04-27T06:43:09.394Z,40.84
2023-04-27T06:44:12.151Z,40.00
2023-04-27T06:45:14.993Z,39.41
2023-04-27T06:46:17.811Z,38.79
2023-04-27T06:47:21.422Z,39.23
2023-04-27T06:48:24.386Z,40.10
2023-04-27T06:49:27.516Z,39.90
2023-04-27T06:50:30.682Z,38.93
2023-04-27T06:51:33.515Z,39.12
2023-04-27T06:52:36.394Z,37.69
2023-04-27T06:53:40.236Z,37.87
2023-04-27T06:54:43.024Z,37.59
2023-04-27T06:55:48.293Z,38.20
2023-04-27T06:56:51.979Z,38.48
2023-04-27T06:57:54.926Z,39.40
2023-04-27T06:58:57.919Z,39.42
2023-04-27T07:00:00.677Z,39.30
2023-04-27T07:01:04.345Z,38.40
2023-04-27T07:02:07.977Z,37.29
2023-04-27T07:03:11.272Z,35.89
2023-04-27T07:04:14.299Z,36.27
2023-04-27T07:05:17.256Z,36.72
2023-04-27T07:06:20.043Z,37.41
2023-04-27T07:07:22.931Z,37.28
2023-04-27T07:08:26.182Z,36.59
2023-04-27T07:09:29.227Z,37.24
2023-04-27T07:10:32.120Z,37.13
2023-04-27T07:11:35.570Z,36.14
2023-04-27T07:12:40.129Z,34.39
2023-04-27T07:13:43.280Z,34.17
2023-04-27T07:14:46.454Z,35.07
2023-04-27T07:15:49.245Z,34.22
2023-04-27T07:16:56.914Z,34.69
2023-04-27T07:17:59.730Z,34.28
2023-04-27T07:19:02.672Z,35.05
2023-04-27T07:20:07.220Z,34.83
2023-04-27T07:21:10.380Z,36.06
2023-04-27T07:22:13.055Z,33.05
2023-04-27T07:23:16.693Z,32.10
2023-04-27T07:24:20.439Z,32.87
2023-04-27T07:25:23.489Z,31.92
2023-04-27T07:26:27.234Z,32.20
2023-04-27T07:27:32.140Z,34.44
2023-04-27T07:28:38.544Z,35.82
2023-04-27T07:29:41.402Z,34.84
2023-04-27T07:30:44.832Z,34.25
2023-04-27T07:31:48.172Z,34.76
2023-04-27T07:32:55.026Z,35.19
2023-04-27T07:33:58.322Z,35.52
2023-04-27T07:35:01.153Z,35.90
2023-04-27T07:36:04.754Z,35.96
2023-04-27T07:37:08.323Z,35.15
2023-04-27T07:38:11.109Z,34.45
2023-04-27T07:39:15.049Z,35.18
2023-04-27T07:40:18.752Z,35.32
2023-04-27T07:41:23.696Z,35.56
2023-04-27T07:42:26.484Z,35.76
2023-04-27T07:43:29.830Z,35.98
2023-04-27T07:44:32.537Z,36.19
2023-04-27T07:45:37.447Z,37.24
2023-04-27T07:46:40.774Z,37.80
2023-04-27T07:47:44.452Z,35.42
2023-04-27T07:48:50.005Z,36.01
2023-04-27T07:49:53.203Z,35.53
2023-04-27T07:50:56.053Z,37.32
2023-04-27T07:51:59.376Z,36.41
2023-04-27T07:53:02.182Z,36.22
2023-04-27T07:54:05.178Z,35.67
2023-04-27T07:55:08.331Z,34.53
2023-04-27T07:56:11.433Z,34.10
2023-04-27T07:57:14.214Z,33.54
2023-04-27T07:58:17.167Z,33.62
2023-04-27T07:59:20.248Z,32.66
2023-04-27T08:00:25.363Z,32.41
2023-04-27T08:01:28.193Z,33.43
2023-04-27T08:02:31.831Z,33.40
2023-04-27T08:03:35.210Z,34.47
2023-04-27T08:04:38.473Z,33.93
2023-04-27T08:05:42.244Z,33.78
2023-04-27T08:06:46.832Z,34.15
2023-04-27T08:07:50.355Z,33.46
2023-04-27T08:08:53.380Z,33.92
2023-04-27T08:09:56.324Z,33.47
2023-04-27T08:10:59.110Z,34.16
2023-04-27T08:12:03.387Z,35.52
2023-04-27T08:13:09.918Z,35.21
2023-04-27T08:14:13.966Z,34.66
2023-04-27T08:15:17.344Z,36.05
2023-04-27T08:16:20.567Z,35.41
2023-04-27T08:17:23.445Z,35.77
2023-04-27T08:18:27.389Z,36.42
2023-04-27T08:19:30.134Z,37.60
2023-04-27T08:20:33.334Z,36.74
2023-04-27T08:21:37.591Z,36.12
2023-04-27T08:22:41.569Z,36.45
2023-04-27T08:23:44.437Z,37.06
2023-04-27T08:24:47.222Z,36.01
2023-04-27T08:25:50.014Z,36.11
2023-04-27T08:26:52.755Z,37.30
2023-04-27T08:27:55.632Z,34.98
2023-04-27T08:28:59.909Z,36.03
2023-04-27T08:30:02.604Z,35.91
2023-04-27T08:31:06.233Z,36.15
2023-04-27T08:32:09.618Z,37.12
2023-04-27T08:33:12.444Z,36.88
2023-04-27T08:34:15.098Z,36.15
2023-04-27T08:35:18.323Z,36.10
2023-04-27T08:36:24.712Z,34.88
2023-04-27T08:37:27.783Z,34.60
2023-04-27T08:38:30.733Z,33.62
2023-04-27T08:39:33.460Z,34.01
2023-04-27T08:40:36.299Z,34.34
2023-04-27T08:41:43.914Z,32.84
2023-04-27T08:43:01.321Z,30.81
2023-04-27T08:44:07.195Z,31.58
2023-04-27T08:45:10.164Z,34.16
2023-04-27T08:46:13.018Z,35.37
2023-04-27T08:47:16.128Z,33.17
2023-04-27T08:48:20.616Z,32.38
2023-04-27T08:49:23.586Z,31.31
2023-04-27T08:50:26.543Z,32.06
2023-04-27T08:51:30.026Z,31.55
2023-04-27T08:52:33.337Z,31.28
2023-04-27T08:53:36.122Z,31.97
2023-04-27T08:54:39.108Z,31.92
2023-04-27T08:55:41.848Z,31.57
2023-04-27T08:56:44.965Z,32.11
2023-04-27T08:57:57.407Z,34.17
2023-04-27T08:59:01.928Z,34.19
2023-04-27T09:00:15.334Z,32.94
2023-04-27T09:01:18.921Z,32.46
2023-04-27T09:02:22.134Z,32.79
2023-04-27T09:03:25.911Z,33.91
2023-04-27T09:04:39.770Z,34.67
2023-04-27T09:06:00.620Z,35.28
2023-04-27T09:07:15.274Z,36.85
2023-04-27T09:08:18.283Z,36.82
2023-04-27T09:09:25.456Z,35.46
2023-04-27T09:10:31.350Z,35.08
2023-04-27T09:11:39.098Z,34.78
2023-04-27T09:12:41.996Z,33.38
2023-04-27T09:13:45.648Z,33.64
2023-04-27T09:14:59.661Z,35.12
2023-04-27T09:16:02.726Z,34.83
2023-04-27T09:17:05.604Z,33.93
2023-04-27T09:18:16.449Z,34.64
2023-04-27T09:19:25.823Z,35.21
2023-04-27T09:20:29.483Z,35.26
2023-04-27T09:21:32.809Z,34.77
2023-04-27T09:22:50.077Z,33.87
2023-04-27T09:23:53.450Z,33.62
2023-04-27T09:24:56.719Z,33.86
2023-04-27T09:26:08.239Z,32.92
2023-04-27T09:27:20.011Z,33.91
2023-04-27T09:28:23.692Z,34.22
2023-04-27T09:29:36.673Z,34.56
2023-04-27T09:30:39.431Z,35.76
2023-04-27T09:31:42.201Z,35.98
2023-04-27T09:32:58.489Z,36.93
2023-04-27T09:34:02.098Z,35.58
2023-04-27T09:35:22.141Z,34.92
2023-04-27T09:36:25.964Z,32.20
2023-04-27T09:37:30.242Z,32.37
2023-04-27T09:38:33.652Z,30.60
2023-04-27T09:39:37.100Z,31.14
2023-04-27T09:40:41.424Z,31.26
2023-04-27T09:41:44.309Z,32.03
2023-04-27T09:42:47.737Z,31.51
2023-04-27T09:43:51.981Z,31.73
2023-04-27T09:44:54.959Z,32.91
2023-04-27T09:45:59.162Z,33.81
2023-04-27T09:47:02.693Z,32.58
2023-04-27T09:48:07.335Z,31.21
2023-04-27T09:49:12.057Z,31.13
2023-04-27T09:50:15.275Z,32.03
2023-04-27T09:51:18.125Z,32.07
2023-04-27T09:52:20.888Z,31.14
2023-04-27T09:53:34.160Z,31.60
2023-04-27T09:54:37.749Z,31.69
2023-04-27T09:55:52.614Z,32.98
2023-04-27T09:57:29.046Z,32.91
2023-04-27T09:58:34.829Z,33.32
2023-04-27T10:00:11.302Z,31.34
2023-04-27T10:01:26.137Z,31.69
2023-04-27T10:02:52.136Z,29.75
2023-04-27T10:04:30.785Z,29.89
2023-04-27T10:06:12.635Z,30.13
2023-04-27T10:07:16.820Z,30.75
2023-04-27T10:08:20.893Z,30.58
2023-04-27T10:09:24.010Z,31.00
2023-04-27T10:10:26.791Z,31.20
2023-04-27T10:11:41.029Z,31.52
2023-04-27T10:12:43.826Z,31.12
2023-04-27T10:13:54.803Z,30.88
2023-04-27T10:14:59.716Z,30.89
2023-04-27T10:16:16.982Z,30.72
2023-04-27T10:17:54.406Z,32.93
2023-04-27T10:18:57.803Z,31.96
2023-04-27T10:20:04.041Z,30.75
2023-04-27T10:21:10.966Z,30.03
2023-04-27T10:22:13.836Z,30.85
2023-04-27T10:23:26.833Z,32.03
2023-04-27T10:24:40.983Z,31.89
2023-04-27T10:25:47.638Z,31.44
2023-04-27T10:26:51.593Z,30.12
2023-04-27T10:27:56.647Z,29.91
2023-04-27T10:29:08.778Z,31.61
2023-04-27T10:30:12.809Z,29.06
2023-04-27T10:31:16.257Z,29.80
2023-04-27T10:32:21.477Z,29.10
2023-04-27T10:33:25.264Z,28.82
2023-04-27T10:34:28.584Z,28.93
2023-04-27T10:35:35.270Z,29.17
2023-04-27T10:36:41.265Z,29.96
2023-04-27T10:37:44.365Z,29.22
2023-04-27T10:38:56.457Z,28.88
2023-04-27T10:40:08.770Z,29.49
2023-04-27T10:41:18.328Z,29.63
2023-04-27T10:42:30.879Z,30.49
2023-04-27T10:43:36.056Z,31.49
2023-04-27T10:44:39.845Z,31.33
2023-04-27T10:45:44.021Z,32.42
2023-04-27T10:46:53.844Z,32.90
2023-04-27T10:48:00.719Z,33.39
2023-04-27T10:49:06.070Z,31.71
2023-04-27T10:50:13.873Z,31.21
2023-04-27T10:51:20.355Z,31.11
2023-04-27T10:52:23.328Z,30.75
2023-04-27T10:53:27.376Z,30.82
2023-04-27T10:54:30.705Z,30.85
2023-04-27T10:55:35.196Z,31.37
2023-04-27T10:56:38.108Z,32.46
2023-04-27T10:57:52.003Z,33.31
2023-04-27T10:58:55.019Z,33.53
2023-04-27T10:59:58.186Z,32.38
2023-04-27T11:01:01.052Z,31.62
2023-04-27T11:02:04.342Z,31.02
2023-04-27T11:03:12.131Z,31.33
2023-04-27T11:04:15.231Z,31.46
2023-04-27T11:05:25.417Z,30.65
2023-04-27T11:06:30.532Z,31.11
2023-04-27T11:07:34.270Z,32.08
2023-04-27T11:08:46.081Z,31.10
2023-04-27T11:09:49.283Z,31.87
2023-04-27T11:10:52.504Z,33.99
2023-04-27T11:11:55.703Z,33.83
2023-04-27T11:12:59.182Z,33.45
2023-04-27T11:14:03.820Z,32.20
2023-04-27T11:15:07.407Z,32.91
2023-04-27T11:16:10.430Z,33.40
2023-04-27T11:17:13.895Z,31.91
2023-04-27T11:18:21.507Z,32.43
2023-04-27T11:19:24.317Z,33.59
2023-04-27T11:20:27.290Z,32.83
2023-04-27T11:21:30.711Z,34.06
2023-04-27T11:22:33.668Z,35.18
2023-04-27T11:23:40.072Z,32.96
2023-04-27T11:24:52.790Z,35.09
2023-04-27T11:25:56.799Z,34.78
2023-04-27T11:27:00.254Z,34.27
2023-04-27T11:28:03.112Z,31.61
2023-04-27T11:29:14.480Z,31.90
2023-04-27T11:30:22.356Z,32.39
2023-04-27T11:31:26.451Z,33.01
2023-04-27T11:32:29.282Z,31.90
2023-04-27T11:33:32.726Z,31.89
2023-04-27T11:34:38.953Z,30.93
2023-04-27T11:35:42.814Z,31.72
2023-04-27T11:37:03.785Z,32.44
2023-04-27T11:38:18.933Z,31.48
2023-04-27T11:39:23.027Z,31.65
2023-04-27T11:40:26.039Z,33.46
2023-04-27T11:41:38.049Z,31.36
2023-04-27T11:42:43.924Z,31.38
2023-04-27T11:43:47.956Z,31.60
2023-04-27T11:45:01.900Z,31.46
2023-04-27T11:46:06.233Z,29.73
2023-04-27T11:47:09.357Z,31.91
2023-04-27T11:48:16.891Z,30.25
2023-04-27T11:49:26.290Z,31.37
2023-04-27T11:50:29.049Z,31.25
2023-04-27T11:51:39.366Z,32.55
2023-04-27T11:52:42.029Z,32.84
2023-04-27T11:53:48.361Z,32.28
2023-04-27T11:54:53.550Z,32.33
2023-04-27T11:55:56.444Z,32.83
2023-04-27T11:57:06.237Z,31.92
2023-04-27T11:58:16.408Z,32.73
2023-04-27T11:59:23.575Z,31.28
2023-04-27T12:00:26.704Z,32.11
2023-04-27T12:01:37.496Z,32.70
2023-04-27T12:02:42.140Z,33.13
2023-04-27T12:03:45.109Z,31.29
2023-04-27T12:04:49.420Z,32.27
2023-04-27T12:05:53.100Z,32.23
2023-04-27T12:06:56.272Z,31.85
2023-04-27T12:07:59.157Z,32.05
2023-04-27T12:09:02.334Z,31.86
2023-04-27T12:10:07.002Z,32.40
2023-04-27T12:11:10.372Z,32.79
2023-04-27T12:12:14.297Z,33.03
2023-04-27T12:13:17.283Z,32.79
2023-04-27T12:14:20.098Z,33.98
2023-04-27T12:15:22.839Z,33.79
2023-04-27T12:16:25.988Z,33.56
2023-04-27T12:17:29.033Z,34.15
2023-04-27T12:18:32.230Z,33.73
2023-04-27T12:19:37.106Z,33.29
2023-04-27T12:20:40.768Z,33.42
2023-04-27T12:21:43.919Z,32.85
2023-04-27T12:22:46.926Z,33.94
2023-04-27T12:23:49.873Z,32.54
2023-04-27T12:24:52.787Z,32.97
2023-04-27T12:25:55.471Z,32.60
2023-04-27T12:26:58.887Z,35.11
2023-04-27T12:28:01.739Z,30.28
2023-04-27T12:29:04.513Z,31.36
2023-04-27T12:30:08.292Z,30.52
2023-04-27T12:31:18.954Z,30.30
2023-04-27T12:32:21.840Z,29.57
2023-04-27T12:33:25.207Z,30.74
2023-04-27T12:34:28.695Z,32.46
2023-04-27T12:35:32.216Z,33.61
2023-04-27T12:36:35.098Z,32.77
2023-04-27T12:37:38.251Z,32.78
2023-04-27T12:38:41.834Z,31.82
2023-04-27T12:39:45.028Z,31.95
2023-04-27T12:40:48.591Z,31.32
2023-04-27T12:41:51.901Z,31.74
2023-04-27T12:42:54.905Z,32.55
2023-04-27T12:43:57.928Z,31.97
2023-04-27T12:45:00.748Z,31.28
2023-04-27T12:46:04.145Z,31.43
2023-04-27T12:47:07.177Z,31.92
2023-04-27T12:48:10.019Z,31.41
2023-04-27T12:49:12.944Z,30.97
2023-04-27T12:50:16.014Z,32.63
2023-04-27T12:51:18.861Z,32.50
2023-04-27T12:52:21.698Z,30.10
2023-04-27T12:53:24.428Z,29.66
2023-04-27T12:54:27.260Z,30.41
2023-04-27T12:55:33.560Z,30.54
2023-04-27T12:56:37.088Z,31.10
2023-04-27T12:57:39.720Z,30.60
2023-04-27T12:58:42.548Z,30.87
2023-04-27T12:59:45.275Z,31.69
2023-04-27T13:00:47.955Z,30.17
2023-04-27T13:01:50.681Z,30.59
2023-04-27T13:02:53.985Z,30.32
2023-04-27T13:04:01.668Z,31.30
2023-04-27T13:05:06.459Z,31.21
2023-04-27T13:06:09.244Z,32.51
2023-04-27T13:07:12.256Z,31.84
2023-04-27T13:08:15.209Z,30.23
2023-04-27T13:09:18.093Z,30.11
2023-04-27T13:10:21.163Z,29.59
2023-04-27T13:11:24.858Z,30.58
2023-04-27T13:12:28.293Z,30.48
2023-04-27T13:13:31.978Z,29.93
2023-04-27T13:14:34.864Z,30.69
2023-04-27T13:15:38.803Z,32.33
2023-04-27T13:16:42.485Z,32.04
2023-04-27T13:17:45.304Z,31.99
2023-04-27T13:18:50.116Z,31.73
2023-04-27T13:19:53.080Z,31.92
2023-04-27T13:20:55.862Z,32.20
2023-04-27T13:21:58.771Z,33.20
2023-04-27T13:23:01.849Z,32.19
2023-04-27T13:24:05.723Z,32.08
2023-04-27T13:25:09.966Z,32.17
2023-04-27T13:26:13.006Z,34.29
2023-04-27T13:27:17.332Z,31.80
2023-04-27T13:28:20.891Z,32.84
2023-04-27T13:29:24.785Z,32.19
2023-04-27T13:30:28.053Z,32.39
2023-04-27T13:31:33.160Z,31.93
2023-04-27T13:32:36.055Z,30.29
2023-04-27T13:33:42.128Z,30.51
2023-04-27T13:34:44.951Z,28.74
2023-04-27T13:35:47.637Z,28.32
2023-04-27T13:36:50.397Z,30.09
2023-04-27T13:37:54.237Z,29.58
2023-04-27T13:38:57.129Z,28.96
2023-04-27T13:40:00.147Z,29.45
2023-04-27T13:41:04.124Z,29.69
2023-04-27T13:42:07.147Z,30.42
2023-04-27T13:43:09.953Z,30.58
2023-04-27T13:44:12.988Z,31.69
2023-04-27T13:45:15.980Z,31.37
2023-04-27T13:46:18.654Z,31.75
2023-04-27T13:47:21.412Z,30.62
2023-04-27T13:48:24.804Z,30.48